Sebastian, FL

9:36 PM EST on February 20, 2017 (GMT -0500)
OZWORLD - *Sebastian Highlands* - | | Change Station

Elev 23 ft 27.80 °N, 80.48 °W | Updated 6 seconds ago

Clear
Clear
65.6 °F
Feels Like 65.6 °F
N
0.0
Wind Variable Wind from NE
Gusts 0.0 mph

Today
High -- | Low -- °F
--% Chance of Precip.
Yesterday
High -- | Low -- °F
Precip. -- in
Pressure 30.13 in
Visibility 10.0 miles
Clouds Clear
Dew Point 62 °F
Humidity 88%
Rainfall 0.00 in
Snow Depth Not available.
6:54 AM 6:16 PM
Waning Crescent, 29% visible
METAR KVRB 210153Z AUTO 07004KT 10SM CLR 19/16 A3013 RMK AO2 SLP202 T01940161
Pressure 30.13 in
Visibility 10.0 miles
Clouds Clear
Dew Point 62 °F
Humidity 88%
Rainfall 0.00 in
Snow Depth Not available.
6:54 AM 6:16 PM
Waning Crescent, 29% visible
METAR KVRB 210153Z AUTO 07004KT 10SM CLR 19/16 A3013 RMK AO2 SLP202 T01940161

Get Your Daily Forecast Email!

Thanks for signing up!

Be on the lookout for a verification email in your inbox.

You'll start receiving the daily forecast at 8 AM.

×

10-Day Weather Forecast

Almanac

Astronomy

Feb. 20, 2017 Rise Set
Actual Time
Civil Twilight
Nautical Twilight
Astronomical Twilight
Moon
Length of Visible Light
Length of Day
Tomorrow will be .
, % of the Moon is Illuminated

Today's Extremes

State Highs State Lows

Community

WunderPhotos

Upload Photos

1,962,540 photos uploaded!

WunderBlog® & News

Nearby

Air Quality

  Air Quality AQ Index Pollutant
Not available.

Snow Depth

Station Depth Elevation

Earthquake Activity

City Distance Mag. Time & Date
Minimum magnitude displayed is 2.5.

Coastal Water Temperatures

Place Temperature

Stations

Nearby Weather Stations

Station Location Temp. Windchill Dew Point Humidity Wind Precip. Elev Updated Type
                   

Watches & Warnings

There are currently no watches in effect.